SBCR/CMG METAR and TAF weather

Enter ICAO airport designator
Station Type Date Time Source
SBCR METAR 2020/03/29 15:00 UTC NOAA

SBCR 291500Z 04008KT 350V070 9999 BKN030 32/24 Q1013


Station Type Date Time Source
SBCR Decoded METAR 2020/03/29 15:00 UTC NOAA

Corumba, Brazil (SBCR) 19-05S 057-30W
Mar 29, 2020 - 11:00 AM EDT / 2020.03.29 1500 UTC
Wind: from the NE (040 degrees) at 9 MPH (8 KT) (direction variable):0
Visibility: greater than 7 mile(s):0
Sky conditions: mostly cloudy
Temperature: 89 F (32 C)
Heat index: 98.4 F (36.9 C):1
Dew Point: 75 F (24 C)
Relative Humidity: 62%
Pressure (altimeter): 29.91 in. Hg (1013 hPa)
ob: SBCR 291500Z 04008KT 350V070 9999 BKN030 32/24 Q1013
cycle: 15

Station Type Date Time Source
SBCR TAF 2020/03/29 12:39 UTC NOAA

TAF SBCR 290900Z 2912/3012 05008KT 9000 FEW040 TX35/2918Z TN24/3006Z PROB40 2914/2922 03008KT 9999 SCT035 FEW040TCU
BECMG 2923/2924 01005KT FEW017
BECMG 3000/3002 10003KT CAVOK
BECMG 3009/3011 06003KT 8000 SHRA SCT032
RMK PAY

Example: see airport list